createdAt,value
2022-09-05T00:01:58.958Z,8.25
2022-09-05T00:04:28.971Z,9.00
2022-09-05T00:07:02.777Z,8.75
2022-09-05T00:09:53.084Z,9.00
2022-09-05T00:12:20.503Z,8.00
2022-09-05T00:15:17.757Z,11.00
2022-09-05T00:19:16.179Z,10.00
2022-09-05T00:24:20.673Z,8.50
2022-09-05T00:24:32.022Z,8.75
2022-09-05T00:26:28.835Z,10.25
2022-09-05T00:28:58.419Z,8.00
2022-09-05T00:31:54.978Z,10.00
2022-09-05T00:34:37.770Z,9.50
2022-09-05T00:37:26.269Z,10.50
2022-09-05T00:40:00.826Z,9.50
2022-09-05T00:42:42.619Z,8.00
2022-09-05T00:45:19.598Z,9.00
2022-09-05T00:47:48.593Z,10.00
2022-09-05T00:50:18.305Z,9.00
2022-09-05T00:53:04.996Z,10.25
2022-09-05T00:55:38.684Z,8.75
2022-09-05T00:58:12.355Z,9.50
2022-09-05T01:00:46.193Z,10.00
2022-09-05T01:03:34.451Z,9.25
2022-09-05T01:06:14.712Z,10.50
2022-09-05T01:08:49.831Z,8.75
2022-09-05T01:11:21.160Z,9.00
2022-09-05T01:13:51.239Z,10.50
2022-09-05T01:16:23.363Z,9.00
2022-09-05T01:19:00.395Z,9.50
2022-09-05T01:21:55.369Z,9.00
2022-09-05T01:24:50.496Z,10.50
2022-09-05T01:28:21.703Z,11.00
2022-09-05T01:30:32.152Z,10.75
2022-09-05T01:33:06.016Z,9.25
2022-09-05T01:36:04.265Z,10.00
2022-09-05T01:38:35.640Z,9.25
2022-09-05T01:41:19.170Z,9.00
2022-09-05T01:43:58.977Z,8.00
2022-09-05T01:46:32.198Z,9.50
2022-09-05T01:49:03.284Z,11.25
2022-09-05T01:51:35.936Z,11.50
2022-09-05T01:54:24.208Z,10.00
2022-09-05T01:57:02.867Z,11.25
2022-09-05T01:59:39.621Z,9.75
2022-09-05T02:02:27.578Z,10.00
2022-09-05T02:05:04.543Z,11.25
2022-09-05T02:07:38.063Z,11.50
2022-09-05T02:10:35.768Z,9.25
2022-09-05T02:13:13.851Z,11.00
2022-09-05T02:15:52.304Z,12.50
2022-09-05T02:18:30.152Z,11.75
2022-09-05T02:20:58.827Z,11.00
2022-09-05T02:23:41.649Z,12.75
2022-09-05T02:26:13.358Z,10.00
2022-09-05T02:28:44.788Z,10.25
2022-09-05T02:31:20.022Z,10.75
2022-09-05T02:33:49.421Z,10.50
2022-09-05T02:36:22.577Z,10.25
2022-09-05T02:42:41.829Z,11.25
2022-09-05T02:45:08.058Z,11.00
2022-09-05T02:45:19.571Z,13.25
2022-09-05T02:47:22.555Z,13.00
2022-09-05T02:51:02.541Z,11.50
2022-09-05T02:57:33.269Z,11.00
2022-09-05T02:57:34.041Z,10.75
2022-09-05T02:58:53.268Z,10.00
2022-09-05T03:01:24.037Z,11.00
2022-09-05T03:03:55.610Z,13.75
2022-09-05T03:06:35.049Z,11.25
2022-09-05T03:09:17.000Z,11.50
2022-09-05T03:12:33.241Z,11.50
2022-09-05T03:15:24.594Z,12.75
2022-09-05T03:18:20.981Z,14.00
2022-09-05T03:21:18.623Z,11.75
2022-09-05T03:24:06.356Z,11.50
2022-09-05T03:26:48.832Z,12.50
2022-09-05T03:29:35.724Z,11.00
2022-09-05T03:32:19.545Z,10.00
2022-09-05T03:35:23.739Z,11.75
2022-09-05T03:38:06.031Z,15.00
2022-09-05T03:40:50.328Z,11.75
2022-09-05T03:43:32.242Z,11.00
2022-09-05T03:46:08.201Z,9.25
2022-09-05T03:48:49.072Z,13.00
2022-09-05T03:57:14.630Z,9.75
2022-09-05T03:57:23.099Z,11.75
2022-09-05T03:57:41.820Z,10.25
2022-09-05T04:00:11.364Z,10.25
2022-09-05T04:08:11.550Z,12.00
2022-09-05T04:08:24.042Z,13.50
2022-09-05T04:08:34.059Z,13.50
2022-09-05T04:11:06.805Z,11.50
2022-09-05T04:13:36.176Z,11.50
2022-09-05T04:16:07.821Z,12.25
2022-09-05T04:18:37.881Z,11.75
2022-09-05T04:21:08.017Z,10.75
2022-09-05T04:23:37.806Z,11.00
2022-09-05T04:26:13.075Z,10.00
2022-09-05T04:29:02.634Z,11.00
2022-09-05T04:31:35.749Z,11.00
2022-09-05T04:34:17.093Z,13.50
2022-09-05T04:36:44.756Z,13.50
2022-09-05T04:39:25.725Z,12.00
2022-09-05T04:41:55.179Z,12.00
2022-09-05T04:44:26.593Z,9.25
2022-09-05T04:46:55.273Z,12.75
2022-09-05T04:49:24.522Z,10.25
2022-09-05T04:52:31.106Z,12.00
2022-09-05T04:55:01.611Z,12.00
2022-09-05T04:57:34.092Z,9.00
2022-09-05T05:02:59.683Z,9.25
2022-09-05T05:06:14.278Z,11.00
2022-09-05T05:06:17.936Z,10.25
2022-09-05T05:08:42.011Z,10.75
2022-09-05T05:16:57.981Z,14.00
2022-09-05T05:18:08.470Z,11.25
2022-09-05T05:18:13.398Z,11.50
2022-09-05T05:19:40.378Z,11.00
2022-09-05T05:22:14.359Z,13.75
2022-09-05T05:24:43.595Z,12.75
2022-09-05T05:27:13.074Z,11.50
2022-09-05T05:29:45.923Z,10.25
2022-09-05T05:32:19.417Z,9.75
2022-09-05T05:35:00.125Z,11.00
2022-09-05T05:37:29.720Z,12.00
2022-09-05T05:40:01.758Z,9.00
2022-09-05T05:42:29.246Z,10.75
2022-09-05T05:44:58.684Z,9.25
2022-09-05T05:47:32.210Z,11.00
2022-09-05T05:50:02.028Z,12.00
2022-09-05T05:52:37.782Z,11.00
2022-09-05T05:55:08.222Z,11.00
2022-09-05T05:58:04.995Z,9.25
2022-09-05T06:00:41.338Z,11.75
2022-09-05T06:04:11.024Z,9.00
2022-09-05T06:06:42.129Z,11.25
2022-09-05T06:14:53.092Z,9.75
2022-09-05T06:15:02.197Z,9.00
2022-09-05T06:16:13.466Z,9.00
2022-09-05T06:19:13.378Z,10.25
2022-09-05T06:22:11.590Z,10.75
2022-09-05T06:25:16.753Z,10.75
2022-09-05T06:28:17.308Z,7.25
2022-09-05T06:30:41.577Z,9.75
2022-09-05T06:33:16.572Z,11.00
2022-09-05T06:36:01.211Z,8.75
2022-09-05T06:38:45.878Z,10.50
2022-09-05T06:41:21.175Z,8.50
2022-09-05T06:44:12.708Z,9.00
2022-09-05T06:46:55.084Z,9.75
2022-09-05T06:49:38.672Z,10.75
2022-09-05T06:52:29.222Z,10.00
2022-09-05T06:55:24.743Z,11.00
2022-09-05T06:58:22.764Z,9.50
2022-09-05T07:00:50.361Z,8.25
2022-09-05T07:03:34.167Z,9.00
2022-09-05T07:06:07.542Z,9.00
2022-09-05T07:08:44.305Z,9.00
2022-09-05T07:11:16.616Z,8.75
2022-09-05T07:13:51.267Z,8.25
2022-09-05T07:16:37.992Z,9.25
2022-09-05T07:19:14.195Z,9.00
2022-09-05T07:21:44.418Z,9.00
2022-09-05T07:24:13.345Z,9.75
2022-09-05T07:26:52.290Z,9.00
2022-09-05T07:29:24.228Z,11.50
2022-09-05T07:31:53.894Z,7.50
2022-09-05T07:34:23.584Z,9.50
2022-09-05T07:37:15.474Z,9.75
2022-09-05T07:39:45.501Z,7.75
2022-09-05T07:42:15.812Z,7.50
2022-09-05T07:44:46.278Z,9.25
2022-09-05T07:47:17.752Z,10.25
2022-09-05T07:49:51.907Z,7.25
2022-09-05T07:56:52.162Z,9.50
2022-09-05T07:56:55.562Z,7.00
2022-09-05T07:58:14.704Z,7.50
2022-09-05T08:00:42.718Z,8.25
2022-09-05T08:03:10.940Z,8.50
2022-09-05T08:05:40.623Z,7.00
2022-09-05T08:08:10.861Z,8.25
2022-09-05T08:11:22.233Z,7.50
2022-09-05T08:13:42.411Z,10.00
2022-09-05T08:16:14.584Z,9.00
2022-09-05T08:18:45.091Z,8.75
2022-09-05T08:21:13.393Z,8.75
2022-09-05T08:23:49.479Z,9.00
2022-09-05T08:26:17.715Z,10.00
2022-09-05T08:28:53.483Z,7.75
2022-09-05T08:31:22.080Z,8.25
2022-09-05T08:33:49.524Z,7.75
2022-09-05T08:36:20.796Z,7.75
2022-09-05T08:38:50.990Z,8.75
2022-09-05T08:41:23.719Z,10.00
2022-09-05T08:46:37.064Z,8.00
2022-09-05T08:47:02.268Z,9.00
2022-09-05T08:49:36.992Z,9.25
2022-09-05T08:52:07.602Z,9.00
2022-09-05T08:54:38.363Z,9.00
2022-09-05T08:57:11.539Z,10.75
2022-09-05T09:00:18.827Z,8.00
2022-09-05T09:02:50.526Z,8.25
2022-09-05T09:05:23.293Z,8.00
2022-09-05T09:07:54.904Z,9.50
2022-09-05T09:10:34.820Z,12.00
2022-09-05T09:13:11.960Z,7.50
2022-09-05T09:15:39.827Z,8.00
2022-09-05T09:18:12.120Z,10.50
2022-09-05T09:20:52.796Z,10.00
2022-09-05T09:23:42.435Z,8.00
2022-09-05T09:26:15.750Z,11.00
2022-09-05T09:28:47.773Z,11.00
2022-09-05T09:31:31.995Z,9.00
2022-09-05T09:34:07.040Z,9.25
2022-09-05T09:36:43.802Z,10.00
2022-09-05T09:39:39.022Z,10.75
2022-09-05T09:42:33.400Z,11.00
2022-09-05T09:45:23.591Z,10.25
2022-09-05T09:48:25.015Z,12.00
2022-09-05T09:51:19.185Z,8.25
2022-09-05T09:53:53.225Z,9.00
2022-09-05T09:56:54.886Z,10.00
2022-09-05T09:59:29.683Z,8.50
2022-09-05T10:04:31.359Z,11.00
2022-09-05T10:10:39.789Z,10.00
2022-09-05T10:10:44.345Z,9.00
2022-09-05T10:11:55.867Z,7.25
2022-09-05T10:14:49.827Z,8.25
2022-09-05T10:17:43.496Z,9.00
2022-09-05T10:20:17.971Z,8.25
2022-09-05T10:22:57.925Z,10.25
2022-09-05T10:25:33.348Z,9.00
2022-09-05T10:28:07.867Z,8.00
2022-09-05T10:32:13.575Z,8.00
2022-09-05T10:35:14.035Z,9.50
2022-09-05T10:36:27.138Z,9.25
2022-09-05T10:39:01.712Z,9.50
2022-09-05T10:41:39.416Z,8.67
2022-09-05T10:44:06.863Z,12.00
2022-09-05T10:46:51.039Z,9.25
2022-09-05T10:49:21.672Z,9.75
2022-09-05T10:51:53.665Z,8.67
2022-09-05T10:54:30.077Z,9.00
2022-09-05T10:57:01.787Z,7.00
2022-09-05T11:02:18.999Z,9.00
2022-09-05T11:02:34.613Z,9.67
2022-09-05T11:05:07.309Z,8.33
2022-09-05T11:07:39.220Z,8.33
2022-09-05T11:10:11.505Z,8.67
2022-09-05T11:12:50.414Z,9.00
2022-09-05T11:15:30.585Z,9.00
2022-09-05T11:18:03.758Z,9.00
2022-09-05T11:20:48.213Z,7.75
2022-09-05T11:23:18.524Z,9.50
2022-09-05T11:25:46.243Z,8.50
2022-09-05T11:28:16.086Z,9.00
2022-09-05T11:30:44.653Z,7.75
2022-09-05T11:39:46.454Z,8.00
2022-09-05T11:39:55.602Z,7.00
2022-09-05T11:40:07.752Z,7.33
2022-09-05T11:42:15.242Z,8.00
2022-09-05T11:44:53.413Z,9.00
2022-09-05T11:47:51.013Z,10.00
2022-09-05T11:50:42.223Z,9.00
2022-09-05T11:53:34.878Z,4.50
2022-09-05T11:56:13.979Z,8.75
2022-09-05T11:58:51.052Z,8.25
2022-09-05T12:01:42.260Z,6.25
2022-09-05T12:04:28.722Z,8.75
2022-09-05T12:07:37.236Z,8.50
2022-09-05T12:10:46.863Z,8.25
2022-09-05T12:13:17.121Z,8.00
2022-09-05T12:15:53.457Z,7.00
2022-09-05T12:18:35.585Z,8.00
2022-09-05T12:21:19.659Z,6.50
2022-09-05T12:24:35.388Z,8.00
2022-09-05T12:27:40.298Z,7.50
2022-09-05T12:29:37.449Z,6.50
2022-09-05T12:33:58.268Z,7.00
2022-09-05T12:36:08.895Z,7.00
2022-09-05T12:40:58.415Z,8.50
2022-09-05T12:41:37.138Z,7.00
2022-09-05T12:44:39.477Z,11.00
2022-09-05T12:46:24.254Z,9.00
2022-09-05T12:48:54.207Z,8.75
2022-09-05T12:51:46.773Z,8.00
2022-09-05T12:54:32.764Z,9.50
2022-09-05T13:01:19.035Z,10.00
2022-09-05T13:03:05.819Z,9.00
2022-09-05T13:03:12.213Z,8.25
2022-09-05T13:05:46.812Z,10.00
2022-09-05T13:08:21.459Z,10.00
2022-09-05T13:14:49.399Z,7.75
2022-09-05T13:15:01.574Z,8.67
2022-09-05T13:16:33.953Z,8.67
2022-09-05T13:19:07.516Z,9.00
2022-09-05T13:21:36.690Z,9.00
2022-09-05T13:24:09.945Z,9.00
2022-09-05T13:26:39.979Z,6.50
2022-09-05T13:29:13.052Z,8.25
2022-09-05T13:38:00.837Z,9.00
2022-09-05T13:38:08.308Z,9.75
2022-09-05T13:38:20.930Z,8.50
2022-09-05T13:40:34.516Z,8.75
2022-09-05T13:43:08.420Z,8.00
2022-09-05T13:45:55.959Z,8.00
2022-09-05T13:51:34.045Z,8.75
2022-09-05T13:54:51.392Z,9.00
2022-09-05T13:57:41.398Z,8.00
2022-09-05T14:00:42.172Z,10.00
2022-09-05T14:03:50.279Z,9.00
2022-09-05T14:06:47.007Z,7.75
2022-09-05T14:09:49.182Z,8.50
2022-09-05T14:12:30.587Z,7.00
2022-09-05T14:15:09.645Z,8.00
2022-09-05T14:18:02.267Z,8.75
2022-09-05T14:21:08.717Z,10.00
2022-09-05T14:23:50.470Z,8.50
2022-09-05T14:26:20.962Z,8.00
2022-09-05T14:29:16.015Z,8.67
2022-09-05T14:37:43.233Z,9.33
2022-09-05T14:37:55.080Z,10.33
2022-09-05T14:38:07.883Z,8.00
2022-09-05T14:41:25.129Z,8.00
2022-09-05T14:44:27.627Z,7.25
2022-09-05T14:47:37.599Z,6.25
2022-09-05T14:50:49.538Z,9.75
2022-09-05T14:57:23.668Z,7.00
2022-09-05T15:02:43.268Z,8.75
2022-09-05T15:02:54.231Z,6.75
2022-09-05T15:05:11.784Z,7.50
2022-09-05T15:09:28.630Z,9.25
2022-09-05T15:12:21.501Z,7.75
2022-09-05T15:14:04.238Z,8.00
2022-09-05T15:16:45.520Z,8.00
2022-09-05T15:19:14.787Z,3.50
2022-09-05T15:21:54.368Z,9.00
2022-09-05T15:24:35.221Z,9.00
2022-09-05T15:27:23.353Z,8.75
2022-09-05T15:30:20.936Z,8.00
2022-09-05T15:40:35.374Z,8.25
2022-09-05T15:43:30.622Z,8.50
2022-09-05T15:50:26.275Z,9.00
2022-09-05T15:56:33.370Z,10.00
2022-09-05T15:59:04.073Z,8.75
2022-09-05T16:02:00.295Z,8.50
2022-09-05T16:10:29.367Z,8.25
2022-09-05T16:10:34.370Z,8.75
2022-09-05T16:13:51.983Z,9.25
2022-09-05T16:22:58.255Z,9.00
2022-09-05T16:23:33.473Z,9.75
2022-09-05T16:23:33.604Z,11.00
2022-09-05T16:24:59.378Z,10.25
2022-09-05T16:27:54.256Z,8.00
2022-09-05T16:30:28.740Z,9.25
2022-09-05T16:33:02.483Z,9.00
2022-09-05T16:35:48.902Z,10.00
2022-09-05T16:38:25.805Z,8.50
2022-09-05T16:41:08.823Z,11.67
2022-09-05T16:43:50.749Z,11.00
2022-09-05T16:46:21.306Z,11.00
2022-09-05T16:48:54.799Z,8.67
2022-09-05T16:51:36.296Z,9.00
2022-09-05T16:54:11.197Z,9.50
2022-09-05T16:56:41.148Z,11.00
2022-09-05T16:59:10.712Z,10.50
2022-09-05T17:02:06.106Z,8.75
2022-09-05T17:04:43.313Z,8.00
2022-09-05T17:07:51.554Z,13.00
2022-09-05T17:10:34.605Z,12.25
2022-09-05T17:13:02.060Z,14.75
2022-09-05T17:15:51.476Z,15.75
2022-09-05T17:18:25.911Z,12.00
2022-09-05T17:20:55.919Z,14.50
2022-09-05T17:25:40.091Z,12.75
2022-09-05T17:29:30.091Z,13.00
2022-09-05T17:32:41.756Z,14.00
2022-09-05T17:35:17.309Z,13.50
2022-09-05T17:38:18.792Z,16.75
2022-09-05T17:41:16.187Z,14.75
2022-09-05T17:43:43.661Z,12.00
2022-09-05T17:46:20.083Z,14.25
2022-09-05T17:49:19.497Z,13.00
2022-09-05T17:52:33.946Z,15.25
2022-09-05T17:55:13.587Z,14.75
2022-09-05T17:57:45.122Z,12.25
2022-09-05T18:01:01.074Z,14.75
2022-09-05T18:04:16.221Z,14.75
2022-09-05T18:10:03.553Z,16.00
2022-09-05T18:13:12.853Z,12.00
2022-09-05T18:16:13.299Z,15.50
2022-09-05T18:19:27.961Z,10.00
2022-09-05T18:25:30.842Z,11.00
2022-09-05T18:28:09.559Z,14.00
2022-09-05T18:30:49.720Z,9.25
2022-09-05T18:33:55.007Z,11.00
2022-09-05T18:36:34.430Z,14.75
2022-09-05T18:39:42.620Z,12.75
2022-09-05T18:42:33.599Z,12.50
2022-09-05T18:45:14.572Z,13.00
2022-09-05T18:47:51.094Z,10.75
2022-09-05T18:50:27.434Z,12.50
2022-09-05T18:53:10.480Z,12.00
2022-09-05T18:56:13.054Z,13.50
2022-09-05T18:58:51.976Z,13.00
2022-09-05T19:01:35.762Z,13.50
2022-09-05T19:04:06.436Z,11.75
2022-09-05T19:06:37.988Z,13.00
2022-09-05T19:09:08.400Z,13.00
2022-09-05T19:11:52.091Z,10.00
2022-09-05T19:14:41.997Z,8.75
2022-09-05T19:17:16.957Z,9.00
2022-09-05T19:20:31.994Z,14.25
2022-09-05T19:23:10.119Z,13.25
2022-09-05T19:25:41.240Z,11.50
2022-09-05T19:36:48.994Z,14.50
2022-09-05T19:36:52.296Z,14.75
2022-09-05T19:36:55.591Z,12.00
2022-09-05T19:37:07.768Z,12.25
2022-09-05T19:47:30.478Z,13.00
2022-09-05T19:47:34.473Z,13.25
2022-09-05T19:47:43.034Z,11.00
2022-09-05T19:49:08.526Z,14.00
2022-09-05T19:51:41.042Z,14.75
2022-09-05T19:58:34.086Z,13.75
2022-09-05T20:01:05.796Z,15.50
2022-09-05T20:03:38.270Z,17.00
2022-09-05T20:06:29.357Z,16.50
2022-09-05T20:09:14.237Z,15.00
2022-09-05T20:11:56.976Z,13.75
2022-09-05T20:14:29.025Z,17.00
2022-09-05T20:17:18.103Z,17.00
2022-09-05T20:19:45.866Z,17.50
2022-09-05T20:22:46.794Z,16.00
2022-09-05T20:25:19.847Z,17.50
2022-09-05T20:28:07.115Z,19.25
2022-09-05T20:30:56.108Z,14.00
2022-09-05T20:33:27.101Z,16.00
2022-09-05T20:43:09.667Z,13.75
2022-09-05T20:43:17.746Z,15.50
2022-09-05T20:43:36.696Z,19.75
2022-09-05T20:44:51.758Z,13.50
2022-09-05T20:51:27.942Z,14.75
2022-09-05T20:54:14.518Z,12.00
2022-09-05T20:54:17.177Z,15.50
2022-09-05T20:56:02.095Z,14.75
2022-09-05T20:58:32.208Z,14.75
2022-09-05T21:01:37.810Z,17.25
2022-09-05T21:04:08.889Z,14.00
2022-09-05T21:06:36.558Z,17.75
2022-09-05T21:09:24.255Z,15.00
2022-09-05T21:11:53.057Z,15.75
2022-09-05T21:14:21.115Z,13.25
2022-09-05T21:17:15.615Z,16.50
2022-09-05T21:19:53.804Z,15.75
2022-09-05T21:22:43.422Z,15.00
2022-09-05T21:25:25.992Z,15.75
2022-09-05T21:28:32.631Z,16.25
2022-09-05T21:31:15.162Z,17.00
2022-09-05T21:34:04.170Z,15.50
2022-09-05T21:36:35.398Z,15.25
2022-09-05T21:39:02.908Z,11.25
2022-09-05T21:41:33.613Z,15.25
2022-09-05T21:47:38.861Z,15.25
2022-09-05T21:47:52.122Z,16.25
2022-09-05T21:50:31.232Z,14.50
2022-09-05T21:54:35.209Z,16.25
2022-09-05T21:59:17.319Z,17.00
2022-09-05T22:01:50.915Z,18.50
2022-09-05T22:04:23.665Z,14.00
2022-09-05T22:06:59.802Z,15.50
2022-09-05T22:09:36.143Z,16.00
2022-09-05T22:12:28.274Z,17.00
2022-09-05T22:15:28.862Z,16.00
2022-09-05T22:18:17.020Z,16.00
2022-09-05T22:21:33.003Z,15.50
2022-09-05T22:23:59.819Z,14.25
2022-09-05T22:26:29.146Z,16.25
2022-09-05T22:28:56.756Z,15.50
2022-09-05T22:34:45.555Z,16.50
2022-09-05T22:37:16.210Z,13.25
2022-09-05T22:39:53.059Z,16.50
2022-09-05T22:42:27.571Z,16.00
2022-09-05T22:45:03.467Z,11.25
2022-09-05T22:47:38.689Z,15.00
2022-09-05T22:50:06.866Z,14.25
2022-09-05T22:52:34.314Z,15.50
2022-09-05T22:55:16.727Z,14.75
2022-09-05T22:57:53.572Z,13.25
2022-09-05T23:00:26.822Z,16.00
2022-09-05T23:02:57.465Z,12.75
2022-09-05T23:05:46.029Z,14.00
2022-09-05T23:08:13.485Z,14.75
2022-09-05T23:10:43.818Z,13.75
2022-09-05T23:13:12.638Z,13.75
2022-09-05T23:15:50.717Z,12.25
2022-09-05T23:18:18.268Z,15.50
2022-09-05T23:21:05.948Z,14.25
2022-09-05T23:23:39.689Z,12.50
2022-09-05T23:26:09.506Z,13.25
2022-09-05T23:28:42.696Z,12.25
2022-09-05T23:31:10.824Z,13.00
2022-09-05T23:33:38.337Z,12.00
2022-09-05T23:36:06.970Z,13.25
2022-09-05T23:38:42.137Z,12.00
2022-09-05T23:41:10.373Z,14.25
2022-09-05T23:43:42.202Z,11.00
2022-09-05T23:46:09.740Z,12.00
2022-09-05T23:48:37.312Z,13.00
2022-09-05T23:51:06.080Z,12.00
2022-09-05T23:53:33.541Z,12.75
2022-09-05T23:56:02.594Z,11.25
2022-09-05T23:58:32.791Z,10.75
